Ignacio Agramonte International Airport
MUCM : now visible

Airfield :











YOU CAN JOIN US ON...

 
LOGIN :

Register | Disclaimer

   EN    FR    IT 

 









Legend :    VFR   Marginal VFR   IFR   Intensive IFR   Very Intensive IFR
Visi :
Ceiling :
>= 8 km
>= 3000ft
5 to 8 km
1000 to 3000 ft
1500m to 5 km
500 to 1000 ft
800 to 1500m
200 to 500 ft
< 800m
< 200 ft
Symbols :   Thunderstorms  Fog  Heavy snow  Heavy precipitations  Wind > 20 kt






- Airport Elevation : 413 ft
- IATA code : CMW


MUCM - Ignacio Agramonte International

CURRENT METAR :
  • 241215Z VRB01KT 5000 BR FEW020 BKN100 24/24 Q1014

EXPIRED METARs :
  • 241150Z 18002KT 3000 BR FEW020 BKN100 23/23 Q1014
  • 241050Z 07002KT 3000 BR SCT020 23/23 Q1013
  • 241005Z AUTO 04002KT 23/23 Q1013

TAF MUCM
Valid from the 24 at 12:00 until the 25 at 12:00 UTC


241100Z 2412/2512 VRB03KT 9000 SCT020
BECMG 2414/2416 08010KT
TEMPO 2419/2502 VRB10KT 3000 SHRA SCT018CB BKN020
BECMG 2503/2505 VRB03KT
MUFH FIR / North America



MET'MAP, your aeronautical weather chart ! - Copyright ORBIFLY December 2007 - Disclaimer

ORBIFLY MET'MAP TEAM :

Programming & Development : Alexandra Zaïnal
Concept & original design : Baudouin d'Aumeries
Assistance for programming : Marc-Olivier Méhu
Technical & hardware support : Manuel Goepfert

Contact : metmap@orbifly.com




SOURCES & CREDITS :

   NOAA       Earth
Advisory